createdAt,value
2018-09-10T00:02:29.394Z,1.50
2018-09-10T00:05:00.034Z,2.23
2018-09-10T00:07:29.722Z,1.80
2018-09-10T00:09:59.679Z,1.70
2018-09-10T00:12:30.988Z,1.73
2018-09-10T00:15:00.423Z,1.90
2018-09-10T00:17:30.036Z,1.87
2018-09-10T00:20:01.237Z,1.93
2018-09-10T00:22:30.886Z,1.70
2018-09-10T00:25:00.920Z,1.50
2018-09-10T00:27:30.885Z,2.00
2018-09-10T00:30:00.366Z,1.80
2018-09-10T00:32:30.075Z,1.90
2018-09-10T00:35:00.243Z,1.63
2018-09-10T00:37:30.756Z,1.77
2018-09-10T00:40:00.496Z,1.80
2018-09-10T00:42:30.146Z,1.70
2018-09-10T00:45:00.091Z,1.80
2018-09-10T00:47:30.381Z,1.67
2018-09-10T00:50:00.326Z,1.97
2018-09-10T00:52:30.111Z,1.93
2018-09-10T00:54:59.961Z,1.50
2018-09-10T00:57:29.926Z,2.00
2018-09-10T01:00:00.524Z,1.60
2018-09-10T01:02:30.392Z,2.30
2018-09-10T01:05:00.452Z,1.87
2018-09-10T01:07:30.162Z,1.70
2018-09-10T01:09:59.871Z,1.87
2018-09-10T01:12:30.390Z,1.53
2018-09-10T01:15:00.262Z,1.73
2018-09-10T01:17:30.474Z,1.57
2018-09-10T01:20:00.580Z,1.67
2018-09-10T01:22:29.967Z,1.90
2018-09-10T01:25:00.114Z,1.83
2018-09-10T01:27:29.974Z,2.00
2018-09-10T01:29:59.411Z,2.37
2018-09-10T01:32:29.665Z,1.83
2018-09-10T01:35:04.660Z,2.43
2018-09-10T01:37:34.911Z,2.23
2018-09-10T01:40:05.609Z,1.70
2018-09-10T01:42:35.983Z,2.00
2018-09-10T01:45:05.455Z,1.83
2018-09-10T01:47:35.796Z,1.60
2018-09-10T01:50:05.633Z,1.70
2018-09-10T01:52:35.735Z,1.80
2018-09-10T01:55:05.928Z,1.80
2018-09-10T01:57:36.028Z,2.03
2018-09-10T02:00:05.991Z,1.53
2018-09-10T02:02:35.998Z,1.70
2018-09-10T02:05:06.681Z,1.90
2018-09-10T02:07:36.490Z,1.60
2018-09-10T02:10:06.725Z,1.70
2018-09-10T02:12:36.627Z,1.50
2018-09-10T02:15:06.892Z,1.77
2018-09-10T02:17:36.771Z,1.47
2018-09-10T02:20:06.414Z,1.60
2018-09-10T02:22:36.141Z,2.00
2018-09-10T02:25:06.313Z,1.80
2018-09-10T02:27:36.887Z,1.77
2018-09-10T02:30:06.916Z,2.00
2018-09-10T02:32:36.982Z,1.97
2018-09-10T02:35:06.811Z,1.80
2018-09-10T02:37:36.591Z,1.70
2018-09-10T02:40:06.789Z,2.00
2018-09-10T02:42:36.475Z,2.00
2018-09-10T02:45:06.635Z,1.67
2018-09-10T02:47:36.545Z,1.93
2018-09-10T02:50:06.985Z,1.80
2018-09-10T02:52:36.942Z,2.10
2018-09-10T02:55:06.973Z,1.90
2018-09-10T02:57:37.462Z,2.37
2018-09-10T03:00:08.591Z,2.07
2018-09-10T03:02:38.346Z,1.93
2018-09-10T03:05:08.773Z,1.80
2018-09-10T03:07:39.275Z,1.97
2018-09-10T03:10:10.292Z,1.80
2018-09-10T03:12:41.644Z,2.20
2018-09-10T03:15:11.938Z,1.80
2018-09-10T03:17:41.520Z,2.17
2018-09-10T03:20:11.332Z,2.10
2018-09-10T03:22:40.987Z,2.03
2018-09-10T03:25:10.716Z,1.70
2018-09-10T03:27:40.581Z,2.10
2018-09-10T03:30:10.693Z,2.17
2018-09-10T03:32:41.005Z,2.10
2018-09-10T03:35:10.696Z,2.10
2018-09-10T03:37:40.188Z,1.87
2018-09-10T03:40:10.130Z,1.90
2018-09-10T03:42:39.841Z,2.20
2018-09-10T03:45:09.917Z,1.83
2018-09-10T03:47:39.865Z,1.70
2018-09-10T03:50:09.596Z,2.17
2018-09-10T03:52:39.475Z,1.93
2018-09-10T03:55:09.746Z,1.97
2018-09-10T03:57:39.660Z,2.00
2018-09-10T04:00:09.727Z,2.33
2018-09-10T04:02:39.464Z,2.20
2018-09-10T04:05:09.840Z,2.33
2018-09-10T04:07:39.501Z,2.10
2018-09-10T04:10:11.009Z,2.00
2018-09-10T04:12:42.530Z,2.30
2018-09-10T04:15:12.567Z,2.13
2018-09-10T04:17:42.472Z,2.10
2018-09-10T04:20:13.037Z,2.30
2018-09-10T04:22:43.374Z,1.90
2018-09-10T04:25:12.986Z,2.23
2018-09-10T04:27:43.597Z,2.30
2018-09-10T04:30:15.357Z,2.20
2018-09-10T04:32:45.871Z,2.03
2018-09-10T04:35:15.942Z,2.30
2018-09-10T04:37:45.443Z,2.13
2018-09-10T04:40:14.922Z,2.40
2018-09-10T04:42:44.698Z,2.00
2018-09-10T04:45:14.975Z,2.13
2018-09-10T04:47:45.510Z,1.93
2018-09-10T04:50:15.393Z,2.27
2018-09-10T04:52:45.446Z,2.80
2018-09-10T04:55:14.994Z,2.17
2018-09-10T04:57:46.441Z,1.90
2018-09-10T05:00:16.189Z,2.00
2018-09-10T05:02:45.710Z,2.00
2018-09-10T05:05:15.196Z,2.80
2018-09-10T05:07:44.924Z,2.70
2018-09-10T05:10:15.808Z,1.90
2018-09-10T05:12:45.330Z,2.17
2018-09-10T05:15:15.289Z,2.10
2018-09-10T05:17:45.166Z,2.00
2018-09-10T05:20:15.312Z,2.07
2018-09-10T05:22:46.409Z,2.07
2018-09-10T05:25:16.236Z,2.43
2018-09-10T05:27:45.762Z,2.33
2018-09-10T05:30:16.092Z,1.63
2018-09-10T05:32:46.203Z,2.30
2018-09-10T05:35:16.857Z,2.13
2018-09-10T05:37:46.977Z,2.20
2018-09-10T05:40:16.457Z,2.40
2018-09-10T05:42:48.614Z,2.37
2018-09-10T05:45:18.974Z,2.20
2018-09-10T05:47:48.578Z,2.03
2018-09-10T05:50:19.470Z,2.20
2018-09-10T05:52:54.275Z,2.37
2018-09-10T05:55:25.644Z,1.70
2018-09-10T05:57:56.311Z,2.00
2018-09-10T06:00:27.173Z,1.93
2018-09-10T06:02:57.433Z,2.57
2018-09-10T06:05:27.383Z,2.23
2018-09-10T06:07:57.195Z,2.43
2018-09-10T06:10:27.811Z,2.27
2018-09-10T06:12:58.677Z,2.13
2018-09-10T06:15:28.496Z,2.13
2018-09-10T06:17:59.252Z,1.90
2018-09-10T06:20:28.926Z,2.40
2018-09-10T06:22:58.932Z,1.87
2018-09-10T06:25:29.027Z,1.67
2018-09-10T06:28:01.013Z,1.87
2018-09-10T06:30:32.074Z,2.50
2018-09-10T06:33:04.635Z,2.60
2018-09-10T06:35:35.407Z,2.70
2018-09-10T06:38:05.895Z,2.40
2018-09-10T06:40:38.518Z,2.53
2018-09-10T06:43:09.694Z,2.70
2018-09-10T06:45:39.595Z,2.47
2018-09-10T06:48:09.113Z,2.57
2018-09-10T06:50:39.987Z,2.37
2018-09-10T06:55:47.029Z,2.30
2018-09-10T06:58:18.165Z,4.87
2018-09-10T07:00:49.150Z,3.67
2018-09-10T07:03:18.915Z,3.70
2018-09-10T07:05:48.788Z,3.63
2018-09-10T07:08:18.918Z,3.03
2018-09-10T07:10:48.501Z,3.07
2018-09-10T07:13:17.955Z,3.77
2018-09-10T07:15:51.981Z,3.20
2018-09-10T07:18:21.594Z,3.57
2018-09-10T07:20:51.250Z,2.70
2018-09-10T07:23:21.156Z,2.47
2018-09-10T07:25:53.447Z,2.17
2018-09-10T07:31:23.355Z,2.10
2018-09-10T07:33:52.806Z,2.30
2018-09-10T07:36:22.426Z,2.17
2018-09-10T07:38:52.828Z,2.30
2018-09-10T07:41:23.469Z,1.57
2018-09-10T07:43:54.366Z,1.60
2018-09-10T07:46:24.308Z,1.60
2018-09-10T07:48:53.830Z,1.73
2018-09-10T07:51:23.279Z,1.63
2018-09-10T07:53:52.722Z,1.23
2018-09-10T07:56:22.687Z,1.60
2018-09-10T07:58:54.132Z,1.37
2018-09-10T08:01:24.454Z,1.93
2018-09-10T08:03:54.628Z,2.00
2018-09-10T08:06:25.168Z,2.10
2018-09-10T08:08:58.534Z,2.33
2018-09-10T08:11:28.915Z,1.50
2018-09-10T08:13:58.865Z,1.50
2018-09-10T08:16:31.155Z,1.80
2018-09-10T08:19:01.730Z,1.70
2018-09-10T08:21:31.889Z,1.43
2018-09-10T08:24:03.198Z,1.70
2018-09-10T08:26:34.285Z,1.70
2018-09-10T08:29:06.221Z,1.77
2018-09-10T08:31:36.815Z,1.60
2018-09-10T08:34:06.945Z,1.67
2018-09-10T08:36:37.849Z,1.30
2018-09-10T08:39:12.313Z,1.40
2018-09-10T08:41:42.665Z,1.53
2018-09-10T08:44:13.698Z,1.53
2018-09-10T08:46:44.516Z,1.43
2018-09-10T08:49:14.790Z,1.57
2018-09-10T08:51:44.313Z,1.70
2018-09-10T08:54:16.704Z,1.70
2018-09-10T08:56:48.078Z,1.20
2018-09-10T08:59:17.895Z,1.70
2018-09-10T09:01:47.818Z,1.40
2018-09-10T09:04:17.709Z,1.70
2018-09-10T09:06:47.416Z,1.23
2018-09-10T09:09:18.830Z,1.40
2018-09-10T09:11:54.926Z,1.30
2018-09-10T09:14:28.544Z,1.97
2018-09-10T09:17:05.716Z,1.63
2018-09-10T09:19:39.570Z,1.40
2018-09-10T09:22:16.194Z,1.60
2018-09-10T09:24:46.166Z,1.53
2018-09-10T09:30:03.760Z,2.10
2018-09-10T09:34:49.179Z,1.70
2018-09-10T09:37:25.061Z,2.33
2018-09-10T09:40:01.889Z,2.00
2018-09-10T09:42:41.575Z,2.60
2018-09-10T09:45:17.175Z,1.67
2018-09-10T09:47:47.286Z,1.70
2018-09-10T09:50:18.927Z,1.73
2018-09-10T09:52:54.099Z,1.50
2018-09-10T09:55:26.171Z,1.50
2018-09-10T09:57:59.385Z,1.40
2018-09-10T10:00:34.077Z,1.30
2018-09-10T10:04:10.920Z,1.70
2018-09-10T10:06:41.628Z,2.13
2018-09-10T10:09:13.346Z,1.60
2018-09-10T10:11:45.783Z,1.73
2018-09-10T10:14:17.101Z,2.80
2018-09-10T10:16:46.968Z,1.67
2018-09-10T10:19:17.005Z,1.60
2018-09-10T10:21:47.058Z,1.53
2018-09-10T10:24:18.187Z,1.37
2018-09-10T10:26:47.864Z,2.00
2018-09-10T10:29:18.429Z,1.83
2018-09-10T10:31:48.041Z,2.10
2018-09-10T10:34:17.479Z,1.73
2018-09-10T10:36:47.327Z,1.60
2018-09-10T10:39:20.318Z,1.90
2018-09-10T10:41:49.907Z,2.00
2018-09-10T10:44:19.751Z,1.67
2018-09-10T10:46:49.185Z,1.73
2018-09-10T10:49:18.793Z,1.87
2018-09-10T10:51:48.679Z,1.77
2018-09-10T10:54:18.267Z,1.57
2018-09-10T10:56:47.926Z,1.50
2018-09-10T10:59:18.376Z,2.00
2018-09-10T11:01:48.043Z,1.63
2018-09-10T11:04:18.461Z,1.77
2018-09-10T11:06:52.007Z,1.80
2018-09-10T11:09:21.684Z,2.33
2018-09-10T11:11:51.669Z,1.70
2018-09-10T11:14:21.595Z,1.50
2018-09-10T11:16:51.355Z,1.80
2018-09-10T11:19:21.888Z,1.60
2018-09-10T11:21:52.118Z,1.70
2018-09-10T11:27:22.301Z,1.50
2018-09-10T11:29:52.669Z,1.70
2018-09-10T11:32:22.250Z,1.50
2018-09-10T11:34:52.350Z,1.70
2018-09-10T11:37:23.276Z,1.50
2018-09-10T11:39:53.329Z,1.37
2018-09-10T11:42:24.489Z,1.40
2018-09-10T11:44:55.594Z,1.33
2018-09-10T11:47:26.064Z,1.73
2018-09-10T11:49:56.028Z,3.93
2018-09-10T11:52:26.479Z,2.30
2018-09-10T11:54:57.060Z,1.57
2018-09-10T11:57:27.296Z,1.47
2018-09-10T11:59:57.724Z,1.30
2018-09-10T12:02:27.344Z,1.67
2018-09-10T12:04:57.486Z,1.80
2018-09-10T12:07:28.224Z,1.70
2018-09-10T12:09:58.972Z,1.53
2018-09-10T12:12:29.293Z,1.60
2018-09-10T12:14:59.044Z,1.73
2018-09-10T12:17:30.133Z,1.60
2018-09-10T12:20:00.434Z,2.17
2018-09-10T12:22:30.622Z,1.70
2018-09-10T12:25:01.397Z,2.50
2018-09-10T12:27:32.814Z,1.73
2018-09-10T12:30:02.630Z,1.90
2018-09-10T12:32:32.920Z,1.63
2018-09-10T12:38:25.725Z,1.60
2018-09-10T12:40:57.566Z,2.20
2018-09-10T12:43:30.023Z,1.83
2018-09-10T12:46:00.508Z,2.07
2018-09-10T12:48:31.808Z,2.53
2018-09-10T12:51:02.220Z,1.47
2018-09-10T12:53:33.455Z,1.90
2018-09-10T12:56:03.751Z,2.17
2018-09-10T12:58:34.574Z,1.60
2018-09-10T13:01:07.813Z,1.63
2018-09-10T13:03:38.605Z,2.00
2018-09-10T13:06:10.686Z,1.67
2018-09-10T13:08:41.030Z,1.60
2018-09-10T13:11:12.802Z,1.83
2018-09-10T13:13:43.702Z,2.03
2018-09-10T13:16:14.048Z,1.80
2018-09-10T13:18:45.334Z,1.60
2018-09-10T13:21:19.076Z,1.83
2018-09-10T13:23:49.744Z,2.00
2018-09-10T13:26:20.512Z,1.73
2018-09-10T13:28:51.042Z,1.83
2018-09-10T13:31:22.289Z,1.90
2018-09-10T13:33:53.410Z,1.80
2018-09-10T13:36:25.124Z,2.10
2018-09-10T13:38:56.157Z,1.90
2018-09-10T13:41:30.117Z,1.80
2018-09-10T13:44:02.076Z,2.50
2018-09-10T13:46:33.511Z,2.30
2018-09-10T13:49:05.680Z,2.10
2018-09-10T13:51:37.122Z,2.50
2018-09-10T13:54:09.724Z,2.43
2018-09-10T13:56:40.796Z,3.20
2018-09-10T13:59:12.532Z,2.40
2018-09-10T14:01:44.827Z,2.40
2018-09-10T14:04:15.948Z,2.00
2018-09-10T14:07:19.719Z,2.20
2018-09-10T14:09:51.404Z,1.67
2018-09-10T14:12:23.573Z,1.90
2018-09-10T14:14:57.335Z,1.80
2018-09-10T14:17:28.747Z,1.93
2018-09-10T14:19:59.854Z,1.87
2018-09-10T14:22:31.059Z,1.53
2018-09-10T14:25:04.150Z,1.70
2018-09-10T14:27:36.912Z,2.10
2018-09-10T14:30:11.555Z,1.70
2018-09-10T14:32:43.209Z,2.10
2018-09-10T14:35:15.773Z,2.07
2018-09-10T14:37:47.961Z,1.80
2018-09-10T14:40:24.640Z,2.20
2018-09-10T14:43:03.261Z,2.40
2018-09-10T14:45:35.084Z,2.57
2018-09-10T14:48:08.365Z,2.10
2018-09-10T14:50:43.081Z,2.20
2018-09-10T14:53:22.157Z,1.70
2018-09-10T14:55:57.162Z,1.60
2018-09-10T14:58:33.097Z,1.83
2018-09-10T15:01:07.382Z,1.70
2018-09-10T15:03:42.556Z,1.90
2018-09-10T15:06:14.193Z,1.87
2018-09-10T15:08:45.893Z,1.40
2018-09-10T15:11:17.172Z,2.10
2018-09-10T15:13:48.759Z,1.80
2018-09-10T15:16:21.717Z,2.80
2018-09-10T15:18:53.516Z,2.20
2018-09-10T15:21:27.484Z,2.00
2018-09-10T15:23:59.295Z,1.87
2018-09-10T15:26:31.543Z,1.80
2018-09-10T15:29:02.795Z,2.00
2018-09-10T15:31:36.204Z,2.17
2018-09-10T15:34:07.093Z,1.60
2018-09-10T15:36:37.498Z,1.73
2018-09-10T15:39:09.407Z,1.70
2018-09-10T15:41:40.038Z,1.97
2018-09-10T15:44:10.932Z,1.40
2018-09-10T15:46:41.227Z,1.70
2018-09-10T15:49:12.091Z,1.50
2018-09-10T15:51:43.271Z,1.57
2018-09-10T15:54:14.161Z,1.53
2018-09-10T15:56:44.910Z,1.63
2018-09-10T15:59:15.703Z,1.70
2018-09-10T16:01:46.342Z,1.80
2018-09-10T16:04:17.544Z,1.87
2018-09-10T16:06:48.447Z,2.10
2018-09-10T16:09:20.732Z,1.60
2018-09-10T16:11:51.232Z,2.27
2018-09-10T16:14:21.661Z,1.97
2018-09-10T16:16:53.295Z,1.90
2018-09-10T16:19:25.376Z,1.93
2018-09-10T16:21:57.122Z,2.00
2018-09-10T16:24:29.225Z,2.03
2018-09-10T16:27:05.822Z,1.77
2018-09-10T16:29:37.307Z,1.70
2018-09-10T16:32:10.580Z,2.17
2018-09-10T16:34:46.073Z,2.10
2018-09-10T16:37:19.480Z,2.20
2018-09-10T16:39:50.939Z,1.97
2018-09-10T16:42:23.725Z,1.83
2018-09-10T16:44:55.666Z,1.77
2018-09-10T16:47:28.660Z,2.13
2018-09-10T16:49:59.229Z,1.87
2018-09-10T16:52:30.753Z,1.67
2018-09-10T16:55:03.765Z,2.00
2018-09-10T16:57:38.423Z,2.03
2018-09-10T17:00:14.394Z,1.63
2018-09-10T17:02:45.581Z,2.20
2018-09-10T17:05:17.525Z,1.90
2018-09-10T17:07:52.366Z,1.90
2018-09-10T17:10:26.111Z,2.03
2018-09-10T17:12:57.579Z,2.00
2018-09-10T17:15:28.295Z,2.27
2018-09-10T17:17:59.740Z,2.30
2018-09-10T17:20:31.262Z,3.27
2018-09-10T17:23:03.107Z,2.33
2018-09-10T17:25:37.893Z,2.63
2018-09-10T17:28:09.056Z,2.73
2018-09-10T17:30:41.784Z,2.43
2018-09-10T17:33:13.381Z,2.63
2018-09-10T17:35:45.979Z,3.30
2018-09-10T17:38:18.026Z,3.30
2018-09-10T17:40:50.293Z,2.90
2018-09-10T17:43:22.538Z,3.47
2018-09-10T17:45:54.819Z,3.07
2018-09-10T17:48:26.147Z,2.60
2018-09-10T17:50:57.774Z,3.37
2018-09-10T17:53:29.360Z,2.80
2018-09-10T17:56:00.928Z,3.63
2018-09-10T17:58:31.303Z,3.07
2018-09-10T18:01:05.529Z,3.27
2018-09-10T18:03:37.685Z,2.47
2018-09-10T18:06:10.228Z,2.60
2018-09-10T18:08:42.399Z,2.70
2018-09-10T18:11:15.360Z,2.97
2018-09-10T18:13:47.953Z,2.80
2018-09-10T18:16:20.496Z,2.50
2018-09-10T18:18:52.124Z,3.07
2018-09-10T18:21:26.567Z,2.40
2018-09-10T18:23:57.566Z,2.30
2018-09-10T18:26:30.448Z,2.10
2018-09-10T18:29:02.194Z,2.30
2018-09-10T18:31:35.160Z,2.40
2018-09-10T18:34:08.525Z,2.00
2018-09-10T18:36:39.927Z,2.47
2018-09-10T18:39:15.872Z,2.33
2018-09-10T18:41:50.308Z,2.10
2018-09-10T18:44:24.320Z,2.43
2018-09-10T18:46:57.878Z,2.13
2018-09-10T18:49:28.300Z,2.60
2018-09-10T18:51:59.147Z,2.63
2018-09-10T18:54:30.813Z,2.50
2018-09-10T18:57:04.593Z,2.97
2018-09-10T18:59:43.768Z,2.00
2018-09-10T19:02:16.318Z,2.20
2018-09-10T19:04:49.794Z,2.73
2018-09-10T19:07:23.322Z,2.43
2018-09-10T19:09:56.663Z,2.67
2018-09-10T19:12:30.546Z,2.40
2018-09-10T19:15:06.553Z,2.70
2018-09-10T19:17:37.693Z,2.43
2018-09-10T19:20:09.155Z,2.30
2018-09-10T19:22:44.064Z,2.53
2018-09-10T19:25:19.895Z,2.37
2018-09-10T19:27:53.120Z,2.10
2018-09-10T19:30:26.032Z,2.27
2018-09-10T19:33:02.990Z,2.50
2018-09-10T19:35:53.198Z,2.60
2018-09-10T19:38:24.719Z,2.50
2018-09-10T19:40:57.113Z,2.37
2018-09-10T19:43:29.343Z,2.90
2018-09-10T19:46:02.547Z,2.53
2018-09-10T19:48:33.568Z,2.60
2018-09-10T19:51:09.176Z,2.83
2018-09-10T19:53:42.780Z,2.80
2018-09-10T19:56:15.048Z,3.10
2018-09-10T19:58:45.832Z,2.80
2018-09-10T20:01:17.833Z,2.33
2018-09-10T20:03:48.393Z,2.50
2018-09-10T20:06:19.664Z,2.77
2018-09-10T20:08:49.959Z,2.33
2018-09-10T20:11:20.658Z,2.30
2018-09-10T20:13:51.692Z,2.00
2018-09-10T20:16:22.513Z,2.60
2018-09-10T20:18:55.068Z,2.60
2018-09-10T20:21:26.878Z,2.73
2018-09-10T20:23:58.167Z,2.80
2018-09-10T20:26:29.300Z,2.50
2018-09-10T20:29:01.601Z,3.23
2018-09-10T20:31:37.376Z,2.47
2018-09-10T20:34:10.458Z,2.70
2018-09-10T20:36:45.847Z,2.80
2018-09-10T20:39:18.585Z,3.23
2018-09-10T20:41:50.140Z,2.33
2018-09-10T20:44:22.634Z,2.53
2018-09-10T20:46:56.509Z,3.03
2018-09-10T20:49:28.858Z,2.67
2018-09-10T20:51:59.883Z,2.70
2018-09-10T20:54:30.721Z,3.00
2018-09-10T20:57:01.830Z,3.10
2018-09-10T20:59:32.801Z,3.10
2018-09-10T21:02:05.023Z,2.77
2018-09-10T21:04:37.121Z,2.50
2018-09-10T21:07:08.344Z,3.50
2018-09-10T21:09:39.316Z,3.30
2018-09-10T21:12:10.695Z,3.70
2018-09-10T21:14:41.714Z,3.27
2018-09-10T21:17:14.087Z,3.50
2018-09-10T21:19:52.222Z,3.27
2018-09-10T21:22:24.450Z,3.47
2018-09-10T21:24:55.359Z,2.83
2018-09-10T21:27:26.315Z,3.10
2018-09-10T21:29:58.077Z,2.77
2018-09-10T21:32:29.043Z,2.93
2018-09-10T21:35:03.295Z,2.60
2018-09-10T21:37:34.740Z,3.10
2018-09-10T21:40:06.023Z,2.70
2018-09-10T21:42:38.683Z,2.63
2018-09-10T21:45:10.731Z,2.73
2018-09-10T21:47:42.586Z,3.20
2018-09-10T21:50:16.463Z,2.60
2018-09-10T21:52:48.341Z,3.00
2018-09-10T21:55:22.653Z,3.27
2018-09-10T21:57:54.052Z,3.13
2018-09-10T22:00:31.387Z,3.60
2018-09-10T22:03:04.486Z,3.23
2018-09-10T22:05:37.470Z,3.07
2018-09-10T22:08:10.127Z,3.47
2018-09-10T22:10:41.697Z,3.83
2018-09-10T22:13:16.631Z,3.53
2018-09-10T22:15:47.919Z,3.50
2018-09-10T22:18:18.778Z,3.50
2018-09-10T22:20:50.750Z,3.27
2018-09-10T22:23:21.359Z,3.33
2018-09-10T22:25:51.963Z,3.47
2018-09-10T22:28:22.648Z,3.90
2018-09-10T22:30:57.113Z,3.40
2018-09-10T22:33:28.614Z,3.53
2018-09-10T22:36:00.754Z,3.53
2018-09-10T22:38:34.366Z,3.73
2018-09-10T22:41:05.714Z,3.50
2018-09-10T22:43:40.239Z,3.53
2018-09-10T22:46:11.509Z,3.47
2018-09-10T22:48:41.646Z,3.10
2018-09-10T22:51:11.891Z,3.37
2018-09-10T22:53:42.684Z,3.67
2018-09-10T22:56:12.512Z,3.83
2018-09-10T22:58:42.787Z,3.57
2018-09-10T23:01:12.849Z,3.30
2018-09-10T23:03:43.198Z,3.77
2018-09-10T23:06:13.509Z,3.30
2018-09-10T23:08:44.215Z,4.10
2018-09-10T23:11:16.154Z,3.40
2018-09-10T23:13:47.755Z,3.97
2018-09-10T23:16:19.211Z,3.80
2018-09-10T23:18:51.413Z,3.73
2018-09-10T23:21:23.371Z,3.40
2018-09-10T23:23:53.991Z,3.87
2018-09-10T23:26:23.972Z,3.77
2018-09-10T23:28:54.785Z,3.67
2018-09-10T23:31:25.865Z,3.70
2018-09-10T23:33:56.773Z,3.63
2018-09-10T23:36:28.003Z,3.73
2018-09-10T23:38:58.434Z,4.00
2018-09-10T23:41:29.184Z,4.27
2018-09-10T23:44:01.404Z,4.40
2018-09-10T23:46:33.345Z,4.20
2018-09-10T23:49:03.454Z,4.23
2018-09-10T23:51:35.222Z,3.60
2018-09-10T23:54:06.139Z,3.87
2018-09-10T23:56:37.143Z,3.97
2018-09-10T23:59:07.268Z,4.50
